aviador You're here:

KZPH Decoded Metar

in
Report Time2017-08-16 19:35:00
UTC Time2017-08-16 19:33:23
Flight Rules unknown UNKNOWN
Wind040° at 04 kt
W.Decomp.*RWY 05: 3.9 kt HW 0.7 kt LCW
RWY 04: 4.0 kt HW -0 kt LCW
RWY 01: 3.5 kt HW 2.0 kt RCW
RWY 36: 3.1 kt HW 2.6 kt RCW
W.Rank040° ranks 4
Current wind is below 040° avg. (5.8)
VisibilityN/A
Phenomena:Vicinity thunderstorm
Clouds:Scattered 045 Hf
Scattered 050 Hf
Broken 120 Hf
Expected CloudBase > 1,600 ft AGL from Temp-Dew spread
Ceiling12,000 ft
Temp28°C
Dew Point24°C (79% RH)
Heat Index31.9°C
QNH1019 hPa
Raw Report
KZPH 161935Z AUTO 04004KT VCTS SCT045 SCT050 BKN120 28/24 A3009
RMK AO2 LTG DSNT NW THRU SE T02760236=

Extra information for KZPH:More info

Social comments